Список аэропортов
Фактическая погода:

22 января, 23:30
Температура: +4°C (+2.2*)
Ветер: северный 2 м/с
Давление: *764 мм
Без существ. явл.
Время (МСК)Темп. СВетерВлажностьДавлениеОблачностьОсадки
21:00+7С, 3 м/с49%1019 гПас прояснениями
22:00+6С, 3 м/с55%1019 гПас прояснениями
23:00+5С, 3 м/с59%1020 гПамалооблачно
23 января
00:00+4С, 3 м/с64%1021 гПамалооблачно
01:00+3С, 3 м/с71%1021 гПамалооблачно
02:00+2С, 3 м/с76%1021 гПамалооблачно
03:00+2С, 3 м/с74%1022 гПас прояснениями
04:00+2С, 4 м/с69%1021 гПамалооблачно
05:00+2С, 4 м/с67%1021 гПас прояснениями
06:00+2С, 4 м/с68%1021 гПас прояснениями
07:00+2С, 4 м/с69%1021 гПас прояснениями
08:00+2С, 3 м/с70%1021 гПаоблачно
09:00+3С, 3 м/с67%1021 гПаоблачно
10:00+3С, 3 м/с65%1021 гПас прояснениями
11:00+2С, 3 м/с69%1022 гПамалооблачно
12:00+4С, 4 м/с64%1022 гПамалооблачно
13:00+6С, 4 м/с53%1021 гПамалооблачно
14:00+8С, 4 м/с46%1020 гПаясно
15:00+10СВ, 3 м/с42%1019 гПаясно
16:00+11СВ, 3 м/с40%1018 гПаясно
17:00+12С, 4 м/с36%1018 гПаясно
18:00+11С, 5 м/с34%1018 гПаясно
19:00+11С, 6 м/с35%1019 гПаясно
20:00+10С, 5 м/с37%1020 гПаясно
21:00+8С, 3 м/с40%1021 гПаясно
22:00+6С, 3 м/с45%1022 гПамалооблачно
23:00+5С, 2 м/с52%1022 гПаясно
24 января
00:00+4С, 2 м/с57%1023 гПаясно
01:00+3С, 3 м/с62%1023 гПамалооблачно
02:00+2С, 2 м/с66%1024 гПамалооблачно
03:00+2С, 2 м/с70%1024 гПаясно
04:00+1С, 2 м/с73%1025 гПаясно
05:00+1СЗ, 1 м/с76%1025 гПаясно
06:000СЗ, 2 м/с77%1025 гПаясно
07:00-0СЗ, 2 м/с79%1025 гПаясно
08:00-1СЗ, 1 м/с81%1025 гПаясно
09:00-1СЗ, 1 м/с82%1026 гПаясно
10:00-1СЗ, 1 м/с84%1026 гПаясно
11:00-2З, 1 м/с84%1027 гПаясно
12:00-0Штиль 82%1026 гПаясно
13:00+2Штиль 71%1025 гПаясно
14:00+6З, 1 м/с55%1024 гПаясно
15:00+9ЮЗ, 2 м/с46%1023 гПаясно
16:00+10ЮЗ, 3 м/с43%1023 гПаясно
17:00+11ЮЗ, 3 м/с40%1022 гПаясно
18:00+11З, 3 м/с38%1022 гПаясно
19:00+11З, 2 м/с39%1022 гПаясно
20:00+10СЗ, 1 м/с43%1023 гПаясно
21:00+7С, 2 м/с51%1024 гПаясно